createdAt,value
2022-11-24T00:01:21.675Z,97.68
2022-11-24T00:04:29.639Z,97.74
2022-11-24T00:07:39.627Z,97.63
2022-11-24T00:10:47.640Z,97.94
2022-11-24T00:13:57.886Z,97.55
2022-11-24T00:17:12.695Z,97.05
2022-11-24T00:20:21.680Z,96.75
2022-11-24T00:23:36.682Z,96.81
2022-11-24T00:26:44.707Z,96.87
2022-11-24T00:29:53.305Z,97.03
2022-11-24T00:33:01.689Z,97.27
2022-11-24T00:43:39.657Z,97.10
2022-11-24T00:46:54.723Z,97.76
2022-11-24T00:50:03.702Z,97.75
2022-11-24T00:53:18.699Z,97.22
2022-11-24T00:56:26.722Z,97.29
2022-11-24T00:59:38.315Z,97.47
2022-11-24T01:02:46.736Z,97.32
2022-11-24T01:06:20.688Z,97.20
2022-11-24T01:09:29.638Z,97.26
2022-11-24T01:12:38.271Z,98.05
2022-11-24T01:15:46.712Z,98.17
2022-11-24T01:19:02.720Z,97.41
2022-11-24T01:22:11.754Z,97.57
2022-11-24T01:25:26.662Z,97.83
2022-11-24T01:28:47.174Z,97.71
2022-11-24T01:31:56.385Z,97.23
2022-11-24T01:35:04.689Z,96.90
2022-11-24T01:38:19.719Z,96.73
2022-11-24T01:41:30.667Z,97.49
2022-11-24T01:44:47.686Z,96.98
2022-11-24T01:47:55.718Z,97.04
2022-11-24T01:51:17.674Z,96.68
2022-11-24T01:54:26.768Z,96.13
2022-11-24T01:57:47.701Z,96.40
2022-11-24T02:00:50.961Z,96.29
2022-11-24T02:04:07.714Z,96.33
2022-11-24T02:07:12.454Z,96.43
2022-11-24T02:10:28.686Z,96.76
2022-11-24T02:13:37.698Z,96.58
2022-11-24T02:16:55.713Z,96.67
2022-11-24T02:20:07.707Z,96.75
2022-11-24T02:23:37.464Z,96.63
2022-11-24T02:26:52.714Z,96.63
2022-11-24T02:30:01.395Z,96.17
2022-11-24T02:33:18.701Z,96.75
2022-11-24T02:36:33.720Z,96.93
2022-11-24T02:39:48.698Z,97.54
2022-11-24T02:42:54.358Z,96.87
2022-11-24T02:46:08.754Z,96.43
2022-11-24T02:49:16.706Z,96.38
2022-11-24T02:52:32.736Z,97.08
2022-11-24T02:55:34.492Z,96.92
2022-11-24T02:58:48.773Z,97.30
2022-11-24T03:01:51.021Z,97.51
2022-11-24T03:05:05.716Z,97.06
2022-11-24T03:08:13.745Z,96.78
2022-11-24T03:11:28.731Z,96.34
2022-11-24T03:14:39.243Z,97.37
2022-11-24T03:17:48.690Z,96.77
2022-11-24T03:20:57.723Z,97.15
2022-11-24T03:24:06.340Z,96.83
2022-11-24T03:27:14.771Z,96.19
2022-11-24T03:30:29.784Z,96.43
2022-11-24T03:33:31.584Z,96.10
2022-11-24T03:36:46.759Z,95.81
2022-11-24T03:39:55.737Z,96.09
2022-11-24T03:43:04.453Z,95.49
2022-11-24T03:46:12.769Z,95.89
2022-11-24T03:49:27.774Z,95.33
2022-11-24T03:52:30.686Z,95.17
2022-11-24T03:55:45.742Z,95.02
2022-11-24T03:58:47.556Z,94.92
2022-11-24T04:02:02.830Z,94.58
2022-11-24T04:05:18.763Z,93.84
2022-11-24T04:08:27.286Z,93.73
2022-11-24T04:11:35.758Z,93.31
2022-11-24T04:14:50.751Z,93.03
2022-11-24T04:18:01.728Z,92.86
2022-11-24T04:21:10.313Z,92.35
2022-11-24T04:24:21.782Z,91.55
2022-11-24T04:27:38.734Z,91.87
2022-11-24T04:30:47.832Z,91.18
2022-11-24T04:33:56.441Z,90.78
2022-11-24T04:37:04.739Z,90.93
2022-11-24T04:40:13.522Z,90.69
2022-11-24T04:43:21.798Z,90.14
2022-11-24T04:46:36.864Z,89.90
2022-11-24T04:49:47.734Z,89.87
2022-11-24T04:53:02.799Z,90.02
2022-11-24T04:56:06.117Z,90.17
2022-11-24T04:59:20.774Z,89.37
2022-11-24T05:02:29.485Z,89.58
2022-11-24T05:05:44.826Z,90.24
2022-11-24T05:08:53.383Z,89.80
2022-11-24T05:12:01.780Z,88.90
2022-11-24T05:15:10.706Z,88.12
2022-11-24T05:18:20.829Z,88.63
2022-11-24T05:21:35.805Z,89.21
2022-11-24T05:24:50.813Z,88.70
2022-11-24T05:28:01.499Z,89.41
2022-11-24T05:31:10.864Z,88.55
2022-11-24T05:34:19.434Z,89.30
2022-11-24T05:37:27.866Z,88.04
2022-11-24T05:40:43.837Z,89.37
2022-11-24T05:43:51.848Z,88.43
2022-11-24T05:47:06.841Z,88.17
2022-11-24T05:50:18.491Z,87.75
2022-11-24T05:53:26.798Z,88.16
2022-11-24T05:56:35.415Z,88.08
2022-11-24T05:59:43.787Z,87.43
2022-11-24T06:02:52.634Z,88.15
2022-11-24T06:06:07.785Z,86.43
2022-11-24T06:09:16.626Z,85.30
2022-11-24T06:12:31.817Z,84.79
2022-11-24T06:15:40.401Z,84.08
2022-11-24T06:18:48.815Z,83.46
2022-11-24T06:21:57.593Z,83.34
2022-11-24T06:25:05.810Z,82.58
2022-11-24T06:28:20.879Z,82.55
2022-11-24T06:31:22.749Z,82.48
2022-11-24T06:34:37.822Z,82.18
2022-11-24T06:37:46.388Z,82.44
2022-11-24T06:40:54.898Z,83.05
2022-11-24T06:44:10.890Z,82.20
2022-11-24T06:47:25.798Z,81.94
2022-11-24T06:50:33.968Z,81.72
2022-11-24T06:53:48.846Z,81.78
2022-11-24T06:56:56.344Z,82.50
2022-11-24T07:00:12.858Z,81.25
2022-11-24T07:03:35.197Z,81.73
2022-11-24T07:06:50.851Z,81.72
2022-11-24T07:10:05.902Z,80.66
2022-11-24T07:13:14.410Z,82.03
2022-11-24T07:16:25.935Z,81.92
2022-11-24T07:19:40.864Z,80.70
2022-11-24T07:22:49.802Z,80.19
2022-11-24T07:26:01.211Z,80.41
2022-11-24T07:29:20.847Z,79.51
2022-11-24T07:32:28.843Z,79.49
2022-11-24T07:35:43.876Z,78.00
2022-11-24T07:38:52.921Z,77.87
2022-11-24T07:42:01.729Z,78.79
2022-11-24T07:45:09.957Z,78.00
2022-11-24T07:48:18.428Z,77.66
2022-11-24T07:51:26.878Z,77.05
2022-11-24T07:54:41.839Z,77.46
2022-11-24T07:57:49.867Z,76.55
2022-11-24T08:01:05.967Z,77.57
2022-11-24T08:04:08.240Z,77.28
2022-11-24T08:07:29.928Z,77.92
2022-11-24T08:10:32.197Z,73.02
2022-11-24T08:13:47.905Z,72.18
2022-11-24T08:16:55.968Z,67.34
2022-11-24T08:20:05.174Z,61.77
2022-11-24T08:23:13.910Z,62.31
2022-11-24T08:26:29.844Z,57.03
2022-11-24T08:29:37.882Z,56.67
2022-11-24T08:32:52.927Z,61.95
2022-11-24T08:35:58.143Z,62.82
2022-11-24T08:39:13.014Z,62.08
2022-11-24T08:42:21.626Z,60.11
2022-11-24T08:45:41.418Z,57.98
2022-11-24T08:48:53.446Z,58.38
2022-11-24T08:52:04.935Z,58.21
2022-11-24T08:55:13.582Z,60.84
2022-11-24T08:58:21.918Z,59.49
2022-11-24T09:01:38.068Z,62.52
2022-11-24T09:04:52.976Z,61.65
2022-11-24T09:08:04.678Z,57.41
2022-11-24T09:11:16.926Z,62.58
2022-11-24T09:14:25.752Z,56.24
2022-11-24T09:17:33.899Z,61.45
2022-11-24T09:20:42.845Z,64.45
2022-11-24T09:23:54.141Z,61.28
2022-11-24T09:27:02.501Z,60.82
2022-11-24T09:30:11.172Z,62.06
2022-11-24T09:33:20.742Z,60.65
2022-11-24T09:36:35.920Z,55.78
2022-11-24T09:39:44.626Z,58.57
2022-11-24T09:43:10.115Z,59.24
2022-11-24T09:46:39.032Z,63.07
2022-11-24T09:50:06.011Z,70.40
2022-11-24T09:53:36.009Z,56.91
2022-11-24T09:57:06.131Z,59.38
2022-11-24T10:00:22.000Z,65.91
2022-11-24T10:03:46.165Z,61.91
2022-11-24T10:07:29.245Z,57.01
2022-11-24T10:10:49.884Z,59.88
2022-11-24T10:14:29.920Z,62.96
2022-11-24T10:17:56.960Z,63.31
2022-11-24T10:21:31.894Z,63.48
2022-11-24T10:25:05.007Z,60.68
2022-11-24T10:28:13.290Z,61.11
2022-11-24T10:31:42.975Z,59.14
2022-11-24T10:34:53.882Z,63.02
2022-11-24T10:38:30.521Z,58.67
2022-11-24T10:41:57.929Z,62.20
2022-11-24T10:45:14.545Z,60.24
2022-11-24T10:48:31.963Z,65.03
2022-11-24T10:52:06.003Z,68.07
2022-11-24T10:55:15.994Z,71.12
2022-11-24T10:58:31.552Z,71.85
2022-11-24T11:01:43.045Z,74.72
2022-11-24T11:05:25.994Z,63.02
2022-11-24T11:08:34.679Z,62.01
2022-11-24T11:11:49.202Z,65.21
2022-11-24T11:14:51.327Z,59.61
2022-11-24T11:18:08.991Z,67.14
2022-11-24T11:21:37.920Z,61.87
2022-11-24T11:24:49.042Z,64.02
2022-11-24T11:28:18.703Z,66.47
2022-11-24T11:31:28.453Z,67.30
2022-11-24T11:34:37.172Z,58.61
2022-11-24T11:37:46.034Z,60.33
2022-11-24T11:41:00.966Z,61.19
2022-11-24T11:44:34.343Z,62.59
2022-11-24T11:48:09.232Z,63.56
2022-11-24T11:51:38.089Z,66.96
2022-11-24T11:55:21.035Z,61.75
2022-11-24T11:58:46.687Z,64.04
2022-11-24T12:02:20.180Z,62.66
2022-11-24T12:05:54.028Z,62.89
2022-11-24T12:09:22.114Z,64.65
2022-11-24T12:13:10.003Z,63.20
2022-11-24T12:16:35.084Z,62.41
2022-11-24T12:20:02.017Z,62.30
2022-11-24T12:23:37.998Z,59.82
2022-11-24T12:27:00.151Z,60.69
2022-11-24T12:30:20.114Z,59.20
2022-11-24T12:33:52.327Z,59.49
2022-11-24T12:37:19.766Z,57.90
2022-11-24T12:40:55.230Z,59.61
2022-11-24T12:44:48.983Z,59.92
2022-11-24T12:48:21.985Z,57.25
2022-11-24T12:51:31.317Z,57.55
2022-11-24T12:54:50.075Z,56.99
2022-11-24T12:58:10.641Z,57.68
2022-11-24T13:01:48.368Z,58.77
2022-11-24T13:05:08.136Z,62.50
2022-11-24T13:08:17.432Z,59.73
2022-11-24T13:11:41.134Z,58.80
2022-11-24T13:14:57.012Z,60.13
2022-11-24T13:18:07.185Z,54.93
2022-11-24T13:21:38.062Z,57.04
2022-11-24T13:25:19.031Z,57.60
2022-11-24T13:29:01.881Z,60.08
2022-11-24T13:32:58.078Z,62.33
2022-11-24T13:36:38.116Z,61.68
2022-11-24T13:39:58.129Z,56.35
2022-11-24T13:43:20.435Z,58.72
2022-11-24T13:46:58.676Z,60.20
2022-11-24T13:50:17.086Z,63.17
2022-11-24T13:53:42.078Z,62.47
2022-11-24T13:56:43.832Z,56.84
2022-11-24T14:00:08.171Z,58.96
2022-11-24T14:03:27.117Z,56.82
2022-11-24T14:06:55.106Z,57.82
2022-11-24T14:09:57.926Z,58.20
2022-11-24T14:13:37.086Z,57.47
2022-11-24T14:16:45.892Z,60.66
2022-11-24T14:19:57.146Z,59.94
2022-11-24T14:23:17.094Z,59.71
2022-11-24T14:26:32.634Z,60.37
2022-11-24T14:30:02.176Z,63.45
2022-11-24T14:33:18.093Z,62.16
2022-11-24T14:36:33.113Z,61.66
2022-11-24T14:39:42.985Z,63.52
2022-11-24T14:42:57.058Z,59.61
2022-11-24T14:46:09.765Z,59.42
2022-11-24T14:49:25.066Z,60.94
2022-11-24T14:52:41.082Z,57.73
2022-11-24T14:55:43.214Z,59.73
2022-11-24T14:58:59.317Z,60.11
2022-11-24T15:02:34.173Z,60.76
2022-11-24T15:06:01.038Z,57.77
2022-11-24T15:09:29.080Z,57.22
2022-11-24T15:12:55.109Z,59.70
2022-11-24T15:16:03.181Z,57.18
2022-11-24T15:19:23.138Z,61.17
2022-11-24T15:22:45.858Z,61.08
2022-11-24T15:26:03.063Z,62.97
2022-11-24T15:29:12.945Z,67.54
2022-11-24T15:32:22.086Z,65.19
2022-11-24T15:35:32.728Z,63.77
2022-11-24T15:38:41.239Z,65.99
2022-11-24T15:41:56.116Z,65.28
2022-11-24T15:44:57.987Z,69.96
2022-11-24T15:48:17.759Z,63.15
2022-11-24T15:51:27.150Z,65.36
2022-11-24T15:54:35.926Z,66.05
2022-11-24T15:57:44.057Z,65.56
2022-11-24T16:00:52.745Z,67.31
2022-11-24T16:04:08.090Z,70.80
2022-11-24T16:07:19.127Z,74.26
2022-11-24T16:10:38.090Z,75.80
2022-11-24T16:13:40.255Z,77.27
2022-11-24T16:16:55.081Z,77.41
2022-11-24T16:20:03.166Z,77.99
2022-11-24T16:23:18.187Z,78.09
2022-11-24T16:26:33.155Z,79.45
2022-11-24T16:29:38.327Z,79.46
2022-11-24T16:32:53.105Z,79.58
2022-11-24T16:36:01.164Z,79.60
2022-11-24T16:39:09.818Z,79.61
2022-11-24T16:42:18.537Z,79.98
2022-11-24T16:45:38.466Z,80.22
2022-11-24T16:48:51.420Z,80.68
2022-11-24T16:52:00.094Z,80.92
2022-11-24T16:55:09.155Z,80.58
2022-11-24T16:58:25.105Z,81.01
2022-11-24T17:01:27.277Z,80.94
2022-11-24T17:04:42.143Z,80.88
2022-11-24T17:07:50.443Z,81.04
2022-11-24T17:11:11.401Z,81.17
2022-11-24T17:14:26.190Z,80.63
2022-11-24T17:17:28.238Z,81.10
2022-11-24T17:20:43.160Z,81.49
2022-11-24T17:23:45.340Z,81.98
2022-11-24T17:27:00.131Z,81.93
2022-11-24T17:30:08.121Z,82.31
2022-11-24T17:33:16.762Z,82.51
2022-11-24T17:36:32.124Z,82.49
2022-11-24T17:39:34.002Z,82.40
2022-11-24T17:42:49.286Z,81.97
2022-11-24T17:46:01.340Z,82.30
2022-11-24T17:49:16.210Z,82.45
2022-11-24T17:52:18.126Z,81.60
2022-11-24T17:55:33.202Z,82.03
2022-11-24T17:58:41.323Z,81.82
2022-11-24T18:01:58.299Z,81.53
2022-11-24T18:05:07.174Z,81.95
2022-11-24T18:08:29.193Z,82.36
2022-11-24T18:11:38.200Z,82.11
2022-11-24T18:14:53.297Z,81.94
2022-11-24T18:18:02.234Z,81.83
2022-11-24T18:21:16.321Z,82.14
2022-11-24T18:24:25.158Z,82.51
2022-11-24T18:27:33.747Z,82.29
2022-11-24T18:30:43.186Z,82.05
2022-11-24T18:33:51.805Z,82.04
2022-11-24T18:37:00.167Z,81.97
2022-11-24T18:40:16.204Z,81.25
2022-11-24T18:43:17.963Z,81.69
2022-11-24T18:46:33.237Z,81.42
2022-11-24T18:49:35.272Z,81.52
2022-11-24T18:52:57.197Z,81.78
2022-11-24T18:56:13.158Z,81.77
2022-11-24T18:59:21.277Z,82.19
2022-11-24T19:02:29.946Z,82.61
2022-11-24T19:05:47.237Z,82.18
2022-11-24T19:09:04.225Z,81.89
2022-11-24T19:12:13.797Z,82.19
2022-11-24T19:15:22.165Z,81.83
2022-11-24T19:18:30.934Z,81.04
2022-11-24T19:21:42.192Z,81.11
2022-11-24T19:24:50.814Z,80.78
2022-11-24T19:27:59.196Z,81.37
2022-11-24T19:31:10.905Z,81.08
2022-11-24T19:34:19.169Z,81.39
2022-11-24T19:37:28.546Z,81.16
2022-11-24T19:40:37.199Z,81.88
2022-11-24T19:43:53.182Z,82.10
2022-11-24T19:47:01.155Z,82.09
2022-11-24T19:50:17.195Z,82.25
2022-11-24T19:53:19.046Z,82.21
2022-11-24T19:56:37.230Z,82.48
2022-11-24T19:59:52.198Z,82.35
2022-11-24T20:03:01.311Z,82.38
2022-11-24T20:06:23.268Z,82.03
2022-11-24T20:09:38.238Z,82.18
2022-11-24T20:12:53.193Z,81.91
2022-11-24T20:16:01.322Z,81.57
2022-11-24T20:19:12.481Z,81.66
2022-11-24T20:22:21.213Z,81.79
2022-11-24T20:25:36.242Z,81.75
2022-11-24T20:28:38.399Z,81.59
2022-11-24T20:31:56.234Z,81.49
2022-11-24T20:34:57.986Z,81.64
2022-11-24T20:38:15.222Z,81.65
2022-11-24T20:41:27.629Z,81.68
2022-11-24T20:44:42.215Z,81.57
2022-11-24T20:47:44.061Z,81.55
2022-11-24T20:50:59.185Z,81.03
2022-11-24T20:54:04.642Z,81.15
2022-11-24T20:57:19.478Z,81.29
2022-11-24T21:00:21.742Z,81.22
2022-11-24T21:03:39.800Z,81.24
2022-11-24T21:06:51.741Z,81.15
2022-11-24T21:10:06.261Z,81.31
2022-11-24T21:13:08.374Z,81.49
2022-11-24T21:16:26.276Z,81.33
2022-11-24T21:19:36.017Z,81.25
2022-11-24T21:22:51.228Z,81.20
2022-11-24T21:25:52.967Z,81.21
2022-11-24T21:29:07.232Z,81.25
2022-11-24T21:32:15.222Z,81.46
2022-11-24T21:35:23.789Z,80.97
2022-11-24T21:38:39.201Z,81.33
2022-11-24T21:41:48.245Z,81.35
2022-11-24T21:45:03.218Z,80.97
2022-11-24T21:48:05.581Z,81.42
2022-11-24T21:51:22.263Z,81.63
2022-11-24T21:54:39.626Z,82.35
2022-11-24T21:57:48.214Z,82.03
2022-11-24T22:01:06.604Z,81.84
2022-11-24T22:04:21.251Z,82.06
2022-11-24T22:07:32.060Z,82.35
2022-11-24T22:10:48.286Z,82.60
2022-11-24T22:13:52.126Z,82.59
2022-11-24T22:17:07.262Z,82.41
2022-11-24T22:20:22.335Z,82.90
2022-11-24T22:23:31.357Z,82.67
2022-11-24T22:26:46.366Z,82.92
2022-11-24T22:29:54.425Z,82.86
2022-11-24T22:33:02.874Z,82.98
2022-11-24T22:36:11.257Z,82.60
2022-11-24T22:39:35.266Z,82.67
2022-11-24T22:42:43.254Z,82.42
2022-11-24T22:45:54.892Z,82.58
2022-11-24T22:49:09.226Z,82.71
2022-11-24T22:52:17.305Z,82.95
2022-11-24T22:55:25.937Z,82.76
2022-11-24T22:58:34.214Z,82.96
2022-11-24T23:01:49.297Z,82.72
2022-11-24T23:04:57.327Z,82.88
2022-11-24T23:08:12.558Z,83.08
2022-11-24T23:11:29.128Z,83.27
2022-11-24T23:14:46.283Z,83.22
2022-11-24T23:17:50.289Z,83.53
2022-11-24T23:21:18.382Z,83.09
2022-11-24T23:24:26.894Z,83.52
2022-11-24T23:27:41.273Z,83.60
2022-11-24T23:30:43.455Z,83.45
2022-11-24T23:33:58.278Z,83.48
2022-11-24T23:37:06.287Z,83.49
2022-11-24T23:40:21.334Z,83.33
2022-11-24T23:43:23.689Z,84.42
2022-11-24T23:46:38.293Z,84.30
2022-11-24T23:49:42.183Z,83.77
2022-11-24T23:52:57.347Z,84.06
2022-11-24T23:55:59.217Z,84.24
2022-11-24T23:59:17.357Z,83.93
